sensor_id;sensor_type;location;lat;lon;timestamp;pressure;altitude;pressure_sealevel;temperature;humidity
52693;BME280;68218;51.012;-1.648;2023-04-28T00:01:21;99865.38;;;11.89;100.00
52693;BME280;68218;51.012;-1.648;2023-04-28T00:03:46;99869.72;;;11.85;100.00
52693;BME280;68218;51.012;-1.648;2023-04-28T00:06:12;99873.28;;;11.75;100.00
52693;BME280;68218;51.012;-1.648;2023-04-28T00:08:39;99874.09;;;11.75;100.00
52693;BME280;68218;51.012;-1.648;2023-04-28T00:11:11;99869.28;;;11.72;100.00
52693;BME280;68218;51.012;-1.648;2023-04-28T00:13:37;99866.56;;;11.72;100.00
52693;BME280;68218;51.012;-1.648;2023-04-28T00:16:03;99871.97;;;11.72;100.00
52693;BME280;68218;51.012;-1.648;2023-04-28T00:18:28;99866.28;;;11.74;100.00
52693;BME280;68218;51.012;-1.648;2023-04-28T00:20:54;99859.34;;;11.57;100.00
52693;BME280;68218;51.012;-1.648;2023-04-28T00:23:20;99863.91;;;11.62;100.00
52693;BME280;68218;51.012;-1.648;2023-04-28T00:25:53;99862.25;;;11.66;100.00
52693;BME280;68218;51.012;-1.648;2023-04-28T00:28:19;99861.22;;;11.62;100.00
52693;BME280;68218;51.012;-1.648;2023-04-28T00:30:45;99855.03;;;11.56;100.00
52693;BME280;68218;51.012;-1.648;2023-04-28T00:33:11;99851.75;;;11.65;100.00
52693;BME280;68218;51.012;-1.648;2023-04-28T00:35:37;99853.63;;;11.64;100.00
52693;BME280;68218;51.012;-1.648;2023-04-28T00:38:03;99843.94;;;11.58;100.00
52693;BME280;68218;51.012;-1.648;2023-04-28T00:40:38;99850.19;;;11.53;100.00
52693;BME280;68218;51.012;-1.648;2023-04-28T00:43:04;99853.09;;;11.67;100.00
52693;BME280;68218;51.012;-1.648;2023-04-28T00:45:30;99855.81;;;11.62;100.00
52693;BME280;68218;51.012;-1.648;2023-04-28T00:47:56;99853.13;;;11.62;100.00
52693;BME280;68218;51.012;-1.648;2023-04-28T00:50:23;99844.78;;;11.53;100.00
52693;BME280;68218;51.012;-1.648;2023-04-28T00:52:50;99838.31;;;11.49;100.00
52693;BME280;68218;51.012;-1.648;2023-04-28T00:55:16;99846.16;;;11.51;100.00
52693;BME280;68218;51.012;-1.648;2023-04-28T00:57:42;99847.53;;;11.48;100.00
52693;BME280;68218;51.012;-1.648;2023-04-28T01:00:08;99839.13;;;11.50;100.00
52693;BME280;68218;51.012;-1.648;2023-04-28T01:02:37;99841.28;;;11.48;100.00
52693;BME280;68218;51.012;-1.648;2023-04-28T01:05:03;99841.53;;;11.51;100.00
52693;BME280;68218;51.012;-1.648;2023-04-28T01:07:29;99846.16;;;11.46;100.00
52693;BME280;68218;51.012;-1.648;2023-04-28T01:09:55;99844.81;;;11.48;100.00
52693;BME280;68218;51.012;-1.648;2023-04-28T01:12:21;99848.34;;;11.43;100.00
52693;BME280;68218;51.012;-1.648;2023-04-28T01:14:47;99845.38;;;11.45;100.00
52693;BME280;68218;51.012;-1.648;2023-04-28T01:17:13;99838.59;;;11.48;100.00
52693;BME280;68218;51.012;-1.648;2023-04-28T01:19:38;99840.22;;;11.49;100.00
52693;BME280;68218;51.012;-1.648;2023-04-28T01:22:04;99847.78;;;11.52;100.00
52693;BME280;68218;51.012;-1.648;2023-04-28T01:24:29;99848.03;;;11.50;100.00
52693;BME280;68218;51.012;-1.648;2023-04-28T01:26:55;99849.16;;;11.44;100.00
52693;BME280;68218;51.012;-1.648;2023-04-28T01:29:20;99851.28;;;11.52;100.00
52693;BME280;68218;51.012;-1.648;2023-04-28T01:31:46;99848.03;;;11.50;100.00
52693;BME280;68218;51.012;-1.648;2023-04-28T01:34:11;99847.56;;;11.43;100.00
52693;BME280;68218;51.012;-1.648;2023-04-28T01:36:36;99855.38;;;11.39;100.00
52693;BME280;68218;51.012;-1.648;2023-04-28T01:39:02;99853.72;;;11.49;100.00
52693;BME280;68218;51.012;-1.648;2023-04-28T01:41:28;99849.69;;;11.41;100.00
52693;BME280;68218;51.012;-1.648;2023-04-28T01:43:53;99854.53;;;11.49;100.00
52693;BME280;68218;51.012;-1.648;2023-04-28T01:46:19;99852.38;;;11.46;100.00
52693;BME280;68218;51.012;-1.648;2023-04-28T01:48:44;99852.41;;;11.41;100.00
52693;BME280;68218;51.012;-1.648;2023-04-28T01:51:09;99852.16;;;11.37;100.00
52693;BME280;68218;51.012;-1.648;2023-04-28T01:53:35;99857.56;;;11.32;100.00
52693;BME280;68218;51.012;-1.648;2023-04-28T01:56:00;99858.09;;;11.34;100.00
52693;BME280;68218;51.012;-1.648;2023-04-28T01:58:26;99869.16;;;11.43;100.00
52693;BME280;68218;51.012;-1.648;2023-04-28T02:00:52;99863.47;;;11.39;100.00
52693;BME280;68218;51.012;-1.648;2023-04-28T02:03:17;99877.81;;;11.35;100.00
52693;BME280;68218;51.012;-1.648;2023-04-28T02:05:43;99861.88;;;11.38;100.00
52693;BME280;68218;51.012;-1.648;2023-04-28T02:08:08;99870.28;;;11.32;100.00
52693;BME280;68218;51.012;-1.648;2023-04-28T02:10:33;99871.06;;;11.32;100.00
52693;BME280;68218;51.012;-1.648;2023-04-28T02:12:59;99877.28;;;11.33;100.00
52693;BME280;68218;51.012;-1.648;2023-04-28T02:15:24;99876.50;;;11.27;100.00
52693;BME280;68218;51.012;-1.648;2023-04-28T02:17:50;99875.41;;;11.28;100.00
52693;BME280;68218;51.012;-1.648;2023-04-28T02:20:15;99874.88;;;11.26;100.00
52693;BME280;68218;51.012;-1.648;2023-04-28T02:22:41;99888.13;;;11.28;100.00
52693;BME280;68218;51.012;-1.648;2023-04-28T02:25:07;99881.88;;;11.27;100.00
52693;BME280;68218;51.012;-1.648;2023-04-28T02:27:34;99888.94;;;11.23;100.00
52693;BME280;68218;51.012;-1.648;2023-04-28T02:30:04;99885.69;;;11.26;100.00
52693;BME280;68218;51.012;-1.648;2023-04-28T02:32:30;99879.72;;;11.24;100.00
52693;BME280;68218;51.012;-1.648;2023-04-28T02:34:56;99885.13;;;11.24;100.00
52693;BME280;68218;51.012;-1.648;2023-04-28T02:37:21;99883.50;;;11.28;100.00
52693;BME280;68218;51.012;-1.648;2023-04-28T02:39:47;99887.56;;;11.20;100.00
52693;BME280;68218;51.012;-1.648;2023-04-28T02:42:12;99892.72;;;11.17;100.00
52693;BME280;68218;51.012;-1.648;2023-04-28T02:44:38;99889.72;;;11.23;100.00
52693;BME280;68218;51.012;-1.648;2023-04-28T02:47:04;99881.34;;;11.25;100.00
52693;BME280;68218;51.012;-1.648;2023-04-28T02:49:29;99881.09;;;11.21;100.00
52693;BME280;68218;51.012;-1.648;2023-04-28T02:51:55;99865.22;;;11.10;100.00
52693;BME280;68218;51.012;-1.648;2023-04-28T02:54:20;99877.59;;;11.21;100.00
52693;BME280;68218;51.012;-1.648;2023-04-28T02:56:55;99881.13;;;11.16;100.00
52693;BME280;68218;51.012;-1.648;2023-04-28T02:59:22;99880.03;;;11.22;100.00
52693;BME280;68218;51.012;-1.648;2023-04-28T03:01:47;99882.44;;;11.24;100.00
52693;BME280;68218;51.012;-1.648;2023-04-28T03:04:14;99886.75;;;11.25;100.00
52693;BME280;68218;51.012;-1.648;2023-04-28T03:06:39;99891.91;;;11.21;100.00
52693;BME280;68218;51.012;-1.648;2023-04-28T03:09:05;99893.78;;;11.26;100.00
52693;BME280;68218;51.012;-1.648;2023-04-28T03:11:31;99886.25;;;11.18;100.00
52693;BME280;68218;51.012;-1.648;2023-04-28T03:13:56;99900.81;;;11.22;100.00
52693;BME280;68218;51.012;-1.648;2023-04-28T03:16:22;99896.25;;;11.17;100.00
52693;BME280;68218;51.012;-1.648;2023-04-28T03:18:47;99895.41;;;11.22;100.00
52693;BME280;68218;51.012;-1.648;2023-04-28T03:21:13;99898.94;;;11.22;100.00
52693;BME280;68218;51.012;-1.648;2023-04-28T03:23:38;99890.53;;;11.19;100.00
52693;BME280;68218;51.012;-1.648;2023-04-28T03:26:04;99900.81;;;11.22;100.00
52693;BME280;68218;51.012;-1.648;2023-04-28T03:28:29;99898.63;;;11.19;100.00
52693;BME280;68218;51.012;-1.648;2023-04-28T03:30:55;99905.41;;;11.21;100.00
52693;BME280;68218;51.012;-1.648;2023-04-28T03:33:20;99901.34;;;11.19;100.00
52693;BME280;68218;51.012;-1.648;2023-04-28T03:35:46;99892.16;;;11.25;100.00
52693;BME280;68218;51.012;-1.648;2023-04-28T03:38:11;99888.41;;;11.21;100.00
52693;BME280;68218;51.012;-1.648;2023-04-28T03:40:37;99896.47;;;11.26;100.00
52693;BME280;68218;51.012;-1.648;2023-04-28T03:43:02;99892.41;;;11.29;100.00
52693;BME280;68218;51.012;-1.648;2023-04-28T03:45:28;99904.00;;;11.29;100.00
52693;BME280;68218;51.012;-1.648;2023-04-28T03:47:53;99909.38;;;11.34;100.00
52693;BME280;68218;51.012;-1.648;2023-04-28T03:50:19;99906.19;;;11.27;100.00
52693;BME280;68218;51.012;-1.648;2023-04-28T03:52:44;99901.31;;;11.29;100.00
52693;BME280;68218;51.012;-1.648;2023-04-28T03:55:09;99901.88;;;11.26;100.00
52693;BME280;68218;51.012;-1.648;2023-04-28T03:57:35;99909.97;;;11.26;100.00
52693;BME280;68218;51.012;-1.648;2023-04-28T04:00:00;99909.97;;;11.26;100.00
52693;BME280;68218;51.012;-1.648;2023-04-28T04:02:26;99901.34;;;11.19;100.00
52693;BME280;68218;51.012;-1.648;2023-04-28T04:04:51;99901.66;;;11.17;100.00
52693;BME280;68218;51.012;-1.648;2023-04-28T04:07:17;99908.63;;;11.18;100.00
52693;BME280;68218;51.012;-1.648;2023-04-28T04:09:42;99899.75;;;11.13;100.00
52693;BME280;68218;51.012;-1.648;2023-04-28T04:12:07;99912.97;;;11.14;100.00
52693;BME280;68218;51.012;-1.648;2023-04-28T04:14:33;99911.56;;;11.27;100.00
52693;BME280;68218;51.012;-1.648;2023-04-28T04:16:58;99917.28;;;11.15;100.00
52693;BME280;68218;51.012;-1.648;2023-04-28T04:19:24;99906.47;;;11.15;100.00
52693;BME280;68218;51.012;-1.648;2023-04-28T04:21:51;99907.34;;;11.11;100.00
52693;BME280;68218;51.012;-1.648;2023-04-28T04:24:16;99918.38;;;11.14;100.00
52693;BME280;68218;51.012;-1.648;2023-04-28T04:26:42;99921.34;;;11.13;100.00
52693;BME280;68218;51.012;-1.648;2023-04-28T04:29:07;99920.81;;;11.16;100.00
52693;BME280;68218;51.012;-1.648;2023-04-28T04:31:33;99923.75;;;11.19;100.00
52693;BME280;68218;51.012;-1.648;2023-04-28T04:33:58;99922.41;;;11.17;100.00
52693;BME280;68218;51.012;-1.648;2023-04-28T04:36:24;99916.75;;;11.18;100.00
52693;BME280;68218;51.012;-1.648;2023-04-28T04:38:49;99916.47;;;11.15;100.00
52693;BME280;68218;51.012;-1.648;2023-04-28T04:41:14;99915.41;;;11.16;100.00
52693;BME280;68218;51.012;-1.648;2023-04-28T04:43:40;99912.44;;;11.22;100.00
52693;BME280;68218;51.012;-1.648;2023-04-28T04:46:06;99914.03;;;11.18;100.00
52693;BME280;68218;51.012;-1.648;2023-04-28T04:48:31;99925.06;;;11.27;100.00
52693;BME280;68218;51.012;-1.648;2023-04-28T04:50:57;99924.28;;;11.27;100.00
52693;BME280;68218;51.012;-1.648;2023-04-28T04:53:22;99935.06;;;11.27;100.00
52693;BME280;68218;51.012;-1.648;2023-04-28T04:55:48;99933.16;;;11.32;100.00
52693;BME280;68218;51.012;-1.648;2023-04-28T04:58:13;99931.34;;;11.17;100.00
52693;BME280;68218;51.012;-1.648;2023-04-28T05:00:39;99935.88;;;11.22;100.00
52693;BME280;68218;51.012;-1.648;2023-04-28T05:03:04;99935.09;;;11.16;100.00
52693;BME280;68218;51.012;-1.648;2023-04-28T05:05:31;99936.72;;;11.17;100.00
52693;BME280;68218;51.012;-1.648;2023-04-28T05:07:56;99938.06;;;11.20;100.00
52693;BME280;68218;51.012;-1.648;2023-04-28T05:10:23;99933.50;;;11.10;100.00
52693;BME280;68218;51.012;-1.648;2023-04-28T05:12:48;99945.63;;;11.18;100.00
52693;BME280;68218;51.012;-1.648;2023-04-28T05:15:14;99944.81;;;11.22;100.00
52693;BME280;68218;51.012;-1.648;2023-04-28T05:17:40;99944.00;;;11.22;100.00
52693;BME280;68218;51.012;-1.648;2023-04-28T05:20:06;99953.72;;;11.18;100.00
52693;BME280;68218;51.012;-1.648;2023-04-28T05:22:31;99960.19;;;11.22;100.00
52693;BME280;68218;51.012;-1.648;2023-04-28T05:24:57;99961.81;;;11.18;100.00
52693;BME280;68218;51.012;-1.648;2023-04-28T05:27:22;99952.34;;;11.20;100.00
52693;BME280;68218;51.012;-1.648;2023-04-28T05:29:47;99956.94;;;11.20;100.00
52693;BME280;68218;51.012;-1.648;2023-04-28T05:32:13;99962.06;;;11.27;100.00
52693;BME280;68218;51.012;-1.648;2023-04-28T05:34:38;99962.91;;;11.17;100.00
52693;BME280;68218;51.012;-1.648;2023-04-28T05:37:04;99959.63;;;11.30;100.00
52693;BME280;68218;51.012;-1.648;2023-04-28T05:39:29;99964.22;;;11.30;100.00
52693;BME280;68218;51.012;-1.648;2023-04-28T05:41:55;99963.38;;;11.34;100.00
52693;BME280;68218;51.012;-1.648;2023-04-28T05:44:20;99977.97;;;11.38;100.00
52693;BME280;68218;51.012;-1.648;2023-04-28T05:46:46;99955.88;;;11.26;100.00
52693;BME280;68218;51.012;-1.648;2023-04-28T05:49:11;99984.19;;;11.39;100.00
52693;BME280;68218;51.012;-1.648;2023-04-28T05:51:36;99979.59;;;11.34;100.00
52693;BME280;68218;51.012;-1.648;2023-04-28T05:54:02;99979.56;;;11.44;100.00
52693;BME280;68218;51.012;-1.648;2023-04-28T05:56:28;99988.53;;;11.35;100.00
52693;BME280;68218;51.012;-1.648;2023-04-28T05:58:53;99989.88;;;11.27;100.00
52693;BME280;68218;51.012;-1.648;2023-04-28T06:01:21;99993.66;;;11.36;100.00
52693;BME280;68218;51.012;-1.648;2023-04-28T06:03:47;99995.22;;;11.48;100.00
52693;BME280;68218;51.012;-1.648;2023-04-28T06:06:12;100004.97;;;11.43;100.00
52693;BME280;68218;51.012;-1.648;2023-04-28T06:08:38;100005.75;;;11.44;100.00
52693;BME280;68218;51.012;-1.648;2023-04-28T06:11:04;100002.50;;;11.52;100.00
52693;BME280;68218;51.012;-1.648;2023-04-28T06:13:29;100011.94;;;11.55;100.00
52693;BME280;68218;51.012;-1.648;2023-04-28T06:15:55;100008.69;;;11.58;100.00
52693;BME280;68218;51.012;-1.648;2023-04-28T06:18:20;100010.31;;;11.64;100.00
52693;BME280;68218;51.012;-1.648;2023-04-28T06:20:47;100008.16;;;11.56;100.00
52693;BME280;68218;51.012;-1.648;2023-04-28T06:23:13;100014.38;;;11.56;100.00
52693;BME280;68218;51.012;-1.648;2023-04-28T06:25:38;100010.34;;;11.54;100.00
52693;BME280;68218;51.012;-1.648;2023-04-28T06:28:04;100018.66;;;11.68;100.00
52693;BME280;68218;51.012;-1.648;2023-04-28T06:30:30;100027.31;;;11.65;100.00
52693;BME280;68218;51.012;-1.648;2023-04-28T06:32:55;100026.50;;;11.69;100.00
52693;BME280;68218;51.012;-1.648;2023-04-28T06:35:22;100023.75;;;11.79;100.00
52693;BME280;68218;51.012;-1.648;2023-04-28T06:37:47;100024.53;;;11.90;100.00
52693;BME280;68218;51.012;-1.648;2023-04-28T06:40:13;100022.66;;;11.91;100.00
52693;BME280;68218;51.012;-1.648;2023-04-28T06:42:38;100033.16;;;11.97;100.00
52693;BME280;68218;51.012;-1.648;2023-04-28T06:45:04;100040.47;;;11.87;100.00
52693;BME280;68218;51.012;-1.648;2023-04-28T06:47:30;100039.38;;;12.03;100.00
52693;BME280;68218;51.012;-1.648;2023-04-28T06:49:55;100044.28;;;11.91;100.00
52693;BME280;68218;51.012;-1.648;2023-04-28T06:52:21;100035.06;;;11.97;100.00
52693;BME280;68218;51.012;-1.648;2023-04-28T06:54:49;100043.44;;;12.01;100.00
52693;BME280;68218;51.012;-1.648;2023-04-28T06:57:15;100045.88;;;12.02;100.00
52693;BME280;68218;51.012;-1.648;2023-04-28T06:59:40;100043.66;;;12.09;100.00
52693;BME280;68218;51.012;-1.648;2023-04-28T07:02:08;100045.28;;;12.10;100.00
52693;BME280;68218;51.012;-1.648;2023-04-28T07:04:34;100049.53;;;12.22;99.68
52693;BME280;68218;51.012;-1.648;2023-04-28T07:07:00;100056.34;;;12.19;99.65
52693;BME280;68218;51.012;-1.648;2023-04-28T07:09:25;100053.84;;;12.28;100.00
52693;BME280;68218;51.012;-1.648;2023-04-28T07:11:51;100047.16;;;12.20;99.60
52693;BME280;68218;51.012;-1.648;2023-04-28T07:14:16;100062.84;;;12.08;98.70
52693;BME280;68218;51.012;-1.648;2023-04-28T07:16:42;100067.75;;;12.01;98.19
52693;BME280;68218;51.012;-1.648;2023-04-28T07:19:07;100066.44;;;11.83;98.56
52693;BME280;68218;51.012;-1.648;2023-04-28T07:21:33;100067.78;;;11.85;97.99
52693;BME280;68218;51.012;-1.648;2023-04-28T07:23:58;100066.16;;;11.89;98.30
52693;BME280;68218;51.012;-1.648;2023-04-28T07:26:24;100062.34;;;11.90;98.10
52693;BME280;68218;51.012;-1.648;2023-04-28T07:28:50;100076.44;;;11.92;97.19
52693;BME280;68218;51.012;-1.648;2023-04-28T07:31:16;100069.13;;;11.98;96.76
52693;BME280;68218;51.012;-1.648;2023-04-28T07:33:41;100074.16;;;12.25;97.20
52693;BME280;68218;51.012;-1.648;2023-04-28T07:36:07;100069.84;;;12.19;96.39
52693;BME280;68218;51.012;-1.648;2023-04-28T07:38:33;100076.06;;;12.20;96.30
52693;BME280;68218;51.012;-1.648;2023-04-28T07:40:59;100080.44;;;12.05;94.81
52693;BME280;68218;51.012;-1.648;2023-04-28T07:43:25;100072.59;;;12.09;95.52
52693;BME280;68218;51.012;-1.648;2023-04-28T07:45:50;100087.41;;;12.16;96.02
52693;BME280;68218;51.012;-1.648;2023-04-28T07:48:16;100088.84;;;12.04;95.14
52693;BME280;68218;51.012;-1.648;2023-04-28T07:50:41;100100.69;;;12.13;95.73
52693;BME280;68218;51.012;-1.648;2023-04-28T07:53:07;100105.84;;;12.09;95.63
52693;BME280;68218;51.012;-1.648;2023-04-28T07:55:33;100093.91;;;12.21;96.49
52693;BME280;68218;51.012;-1.648;2023-04-28T07:57:58;100114.97;;;12.29;94.93
52693;BME280;68218;51.012;-1.648;2023-04-28T08:00:24;100117.38;;;12.35;95.70
52693;BME280;68218;51.012;-1.648;2023-04-28T08:02:50;100116.22;;;12.47;96.08
52693;BME280;68218;51.012;-1.648;2023-04-28T08:05:15;100115.72;;;12.40;95.44
52693;BME280;68218;51.012;-1.648;2023-04-28T08:07:41;100121.34;;;12.53;93.98
52693;BME280;68218;51.012;-1.648;2023-04-28T08:10:09;100128.84;;;12.67;94.38
52693;BME280;68218;51.012;-1.648;2023-04-28T08:12:35;100133.13;;;12.73;93.83
52693;BME280;68218;51.012;-1.648;2023-04-28T08:15:00;100133.69;;;12.75;94.08
52693;BME280;68218;51.012;-1.648;2023-04-28T08:17:26;100144.00;;;12.63;94.43
52693;BME280;68218;51.012;-1.648;2023-04-28T08:19:51;100134.34;;;12.51;94.14
52693;BME280;68218;51.012;-1.648;2023-04-28T08:22:17;100150.09;;;12.39;93.55
52693;BME280;68218;51.012;-1.648;2023-04-28T08:24:42;100148.72;;;12.42;94.67
52693;BME280;68218;51.012;-1.648;2023-04-28T08:27:07;100147.63;;;12.43;95.07
52693;BME280;68218;51.012;-1.648;2023-04-28T08:29:33;100153.81;;;12.48;95.20
52693;BME280;68218;51.012;-1.648;2023-04-28T08:31:58;100153.53;;;12.55;94.27
52693;BME280;68218;51.012;-1.648;2023-04-28T08:34:25;100162.91;;;12.73;94.65
52693;BME280;68218;51.012;-1.648;2023-04-28T08:36:51;100157.50;;;12.68;94.07
52693;BME280;68218;51.012;-1.648;2023-04-28T08:39:17;100159.94;;;12.69;93.34
52693;BME280;68218;51.012;-1.648;2023-04-28T08:41:44;100167.72;;;12.81;94.32
52693;BME280;68218;51.012;-1.648;2023-04-28T08:44:10;100163.84;;;12.98;93.91
52693;BME280;68218;51.012;-1.648;2023-04-28T08:46:40;100165.06;;;12.71;93.42
52693;BME280;68218;51.012;-1.648;2023-04-28T08:49:12;100167.19;;;12.84;93.88
52693;BME280;68218;51.012;-1.648;2023-04-28T08:52:09;100176.09;;;12.85;92.46
52693;BME280;68218;51.012;-1.648;2023-04-28T08:54:30;100167.78;;;12.71;92.51
52693;BME280;68218;51.012;-1.648;2023-04-28T08:56:56;100179.16;;;12.68;91.93
52693;BME280;68218;51.012;-1.648;2023-04-28T08:59:23;100175.91;;;12.71;92.00
52693;BME280;68218;51.012;-1.648;2023-04-28T09:01:48;100184.53;;;12.78;92.54
52693;BME280;68218;51.012;-1.648;2023-04-28T09:04:18;100179.66;;;12.80;92.93
52693;BME280;68218;51.012;-1.648;2023-04-28T09:06:43;100190.47;;;12.85;92.71
52693;BME280;68218;51.012;-1.648;2023-04-28T09:09:24;100190.50;;;12.75;93.30
52693;BME280;68218;51.012;-1.648;2023-04-28T09:14:16;100195.09;;;12.74;93.62
52693;BME280;68218;51.012;-1.648;2023-04-28T09:16:41;100208.13;;;12.62;93.13
52693;BME280;68218;51.012;-1.648;2023-04-28T09:19:06;100201.59;;;12.79;93.81
52693;BME280;68218;51.012;-1.648;2023-04-28T09:21:32;100196.88;;;13.00;92.14
52693;BME280;68218;51.012;-1.648;2023-04-28T09:23:57;100197.28;;;13.17;91.85
52693;BME280;68218;51.012;-1.648;2023-04-28T09:26:23;100198.59;;;13.30;88.68
52693;BME280;68218;51.012;-1.648;2023-04-28T09:28:49;100200.94;;;13.47;89.45
52693;BME280;68218;51.012;-1.648;2023-04-28T09:31:22;100206.22;;;13.62;88.26
52693;BME280;68218;51.012;-1.648;2023-04-28T09:33:58;100205.13;;;13.63;89.04
52693;BME280;68218;51.012;-1.648;2023-04-28T09:36:28;100215.31;;;13.77;86.63
52693;BME280;68218;51.012;-1.648;2023-04-28T09:38:57;100217.28;;;14.00;88.19
52693;BME280;68218;51.012;-1.648;2023-04-28T09:41:42;100226.25;;;13.96;88.51
52693;BME280;68218;51.012;-1.648;2023-04-28T09:44:15;100229.16;;;13.75;85.71
52693;BME280;68218;51.012;-1.648;2023-04-28T09:46:43;100221.91;;;13.95;86.64
52693;BME280;68218;51.012;-1.648;2023-04-28T09:49:09;100234.91;;;13.98;86.01
52693;BME280;68218;51.012;-1.648;2023-04-28T09:51:35;100232.28;;;13.88;84.34
52693;BME280;68218;51.012;-1.648;2023-04-28T09:54:02;100241.50;;;13.92;85.19
52693;BME280;68218;51.012;-1.648;2023-04-28T09:56:28;100233.69;;;13.85;84.35
52693;BME280;68218;51.012;-1.648;2023-04-28T09:58:59;100245.72;;;13.68;83.96
52693;BME280;68218;51.012;-1.648;2023-04-28T10:01:32;100239.16;;;14.09;86.02
52693;BME280;68218;51.012;-1.648;2023-04-28T10:04:03;100239.97;;;14.58;86.10
52693;BME280;68218;51.012;-1.648;2023-04-28T10:06:29;100234.84;;;15.24;83.40
52693;BME280;68218;51.012;-1.648;2023-04-28T10:08:55;100236.44;;;15.63;80.88
52693;BME280;68218;51.012;-1.648;2023-04-28T10:11:22;100242.19;;;15.94;80.01
52693;BME280;68218;51.012;-1.648;2023-04-28T10:13:50;100239.25;;;16.51;80.27
52693;BME280;68218;51.012;-1.648;2023-04-28T10:16:15;100240.88;;;16.38;79.35
52693;BME280;68218;51.012;-1.648;2023-04-28T10:18:42;100242.56;;;16.48;79.82
52693;BME280;68218;51.012;-1.648;2023-04-28T10:21:08;100243.47;;;16.29;75.79
52693;BME280;68218;51.012;-1.648;2023-04-28T10:24:14;100242.97;;;16.27;80.25
52693;BME280;68218;51.012;-1.648;2023-04-28T10:27:07;100257.78;;;15.69;77.96
52693;BME280;68218;51.012;-1.648;2023-04-28T10:29:33;100259.22;;;15.29;80.89
52693;BME280;68218;51.012;-1.648;2023-04-28T10:32:16;100272.31;;;15.27;81.23
52693;BME280;68218;51.012;-1.648;2023-04-28T10:34:41;100273.25;;;15.36;80.39
52693;BME280;68218;51.012;-1.648;2023-04-28T10:37:07;100272.00;;;15.66;80.60
52693;BME280;68218;51.012;-1.648;2023-04-28T10:39:32;100276.81;;;15.69;79.85
52693;BME280;68218;51.012;-1.648;2023-04-28T10:41:58;100277.31;;;15.77;79.68
52693;BME280;68218;51.012;-1.648;2023-04-28T10:55:26;100284.69;;;15.90;76.73
52693;BME280;68218;51.012;-1.648;2023-04-28T11:00:40;100294.97;;;15.74;78.90
52693;BME280;68218;51.012;-1.648;2023-04-28T11:03:05;100298.31;;;16.04;75.92
52693;BME280;68218;51.012;-1.648;2023-04-28T11:05:31;100295.84;;;16.07;78.02
52693;BME280;68218;51.012;-1.648;2023-04-28T11:11:13;100296.41;;;15.90;78.24
52693;BME280;68218;51.012;-1.648;2023-04-28T11:13:41;100300.16;;;15.76;79.91
52693;BME280;68218;51.012;-1.648;2023-04-28T11:16:07;100301.53;;;15.73;78.73
52693;BME280;68218;51.012;-1.648;2023-04-28T11:21:20;100300.34;;;16.45;76.49
52693;BME280;68218;51.012;-1.648;2023-04-28T11:23:46;100297.31;;;16.46;75.93
52693;BME280;68218;51.012;-1.648;2023-04-28T11:26:12;100288.22;;;16.23;76.52
52693;BME280;68218;51.012;-1.648;2023-04-28T11:28:55;100301.81;;;16.23;73.89
52693;BME280;68218;51.012;-1.648;2023-04-28T11:31:22;100307.56;;;15.89;74.88
52693;BME280;68218;51.012;-1.648;2023-04-28T11:33:52;100305.66;;;15.89;75.67
52693;BME280;68218;51.012;-1.648;2023-04-28T11:36:29;100303.94;;;15.74;76.73
52693;BME280;68218;51.012;-1.648;2023-04-28T11:38:57;100310.00;;;15.90;78.43
52693;BME280;68218;51.012;-1.648;2023-04-28T11:41:23;100306.94;;;16.11;74.31
52693;BME280;68218;51.012;-1.648;2023-04-28T11:43:49;100312.34;;;15.97;74.55
52693;BME280;68218;51.012;-1.648;2023-04-28T11:46:22;100312.44;;;16.39;76.87
52693;BME280;68218;51.012;-1.648;2023-04-28T11:48:48;100311.13;;;16.50;74.07
52693;BME280;68218;51.012;-1.648;2023-04-28T11:51:36;100302.00;;;17.15;72.44
52693;BME280;68218;51.012;-1.648;2023-04-28T11:54:04;100312.13;;;18.10;70.63
52693;BME280;68218;51.012;-1.648;2023-04-28T11:56:29;100315.44;;;18.30;68.55
52693;BME280;68218;51.012;-1.648;2023-04-28T11:59:45;100307.56;;;18.60;70.80
52693;BME280;68218;51.012;-1.648;2023-04-28T12:01:53;100324.47;;;19.11;66.70
52693;BME280;68218;51.012;-1.648;2023-04-28T12:07:09;100319.34;;;18.69;69.46
52693;BME280;68218;51.012;-1.648;2023-04-28T12:09:40;100314.78;;;19.88;65.44
52693;BME280;68218;51.012;-1.648;2023-04-28T12:12:11;100321.50;;;20.17;65.08
52693;BME280;68218;51.012;-1.648;2023-04-28T12:14:56;100323.97;;;19.83;60.64
52693;BME280;68218;51.012;-1.648;2023-04-28T12:19:55;100332.16;;;20.74;60.32
52693;BME280;68218;51.012;-1.648;2023-04-28T12:22:21;100333.41;;;19.51;61.04
52693;BME280;68218;51.012;-1.648;2023-04-28T12:25:09;100345.59;;;19.27;65.67
52693;BME280;68218;51.012;-1.648;2023-04-28T12:27:36;100345.41;;;18.75;62.48
52693;BME280;68218;51.012;-1.648;2023-04-28T12:32:46;100346.66;;;19.75;62.51
52693;BME280;68218;51.012;-1.648;2023-04-28T12:35:12;100345.50;;;19.50;64.91
52693;BME280;68218;51.012;-1.648;2023-04-28T12:37:38;100351.28;;;19.66;65.08
52693;BME280;68218;51.012;-1.648;2023-04-28T12:40:06;100353.41;;;19.03;62.10
52693;BME280;68218;51.012;-1.648;2023-04-28T12:42:32;100355.50;;;18.97;62.94
52693;BME280;68218;51.012;-1.648;2023-04-28T12:44:57;100361.84;;;19.24;67.18
52693;BME280;68218;51.012;-1.648;2023-04-28T12:47:23;100364.53;;;19.15;66.11
52693;BME280;68218;51.012;-1.648;2023-04-28T12:49:49;100356.47;;;20.11;63.86
52693;BME280;68218;51.012;-1.648;2023-04-28T12:52:17;100361.63;;;19.95;62.01
52693;BME280;68218;51.012;-1.648;2023-04-28T12:54:43;100365.16;;;19.78;59.93
52693;BME280;68218;51.012;-1.648;2023-04-28T12:57:12;100360.63;;;19.74;58.64
52693;BME280;68218;51.012;-1.648;2023-04-28T12:59:38;100361.47;;;20.09;61.72
52693;BME280;68218;51.012;-1.648;2023-04-28T13:02:04;100382.31;;;19.44;61.78
52693;BME280;68218;51.012;-1.648;2023-04-28T13:04:29;100374.28;;;19.39;64.38
52693;BME280;68218;51.012;-1.648;2023-04-28T13:06:56;100381.00;;;19.33;64.16